University Buffalo, New York
Current Conditions -  °F | °C
As of 4:33 PM on Wednesday 17 Dec 2014 (Local Time) from KBUF Reporting Station
Light Snow Light Snow  
Wind Chill: 22°   Ceiling: 1200
Heat Index: 33°   Visibility: 4mi
Dew Point: 29°   Wind: 20mph
Humidity: 85%   Direction: 250°WSW
Pressure: 29.93"   Gusts: 28mph
Location:  42.9393°N, 78.8401°W
Report Text: KBUF 172133Z 25017G24KT 4SM -SN BR BKN012 OVC023 01/M02 A2993 RMK AO2 P0000 T00061017
Loading
Personal Weather Stations






























Interactive Weather Map New forecast layout! Learn more

10-Day Weather Forecast

Advertisements
Track Severe Weather on mobile